Buffalo, Montana
Current Conditions -  °F | °C
As of 9:54 PM on Sunday 21 Dec 2014 (Local Time) from KLWT Reporting Station
Overcast Overcast  
Wind Chill: 27°   Ceiling: 7000
Heat Index: 39°   Visibility: 10mi
Dew Point: 23°   Wind: 29mph
Humidity: 53%   Direction: 300°WNW
Pressure: 29.66"   Gusts: 39mph
Location:  46.82°N, 109.82°W
Report Text: KLWT 220454Z AUTO 30025G34KT 10SM SCT050 BKN070 OVC100 04/M05 A2966 RMK AO2 PK WND 30034/0446 SLP049 T00391050
Loading
Personal Weather Stations






























Interactive Weather Map New forecast layout! Learn more

10-Day Weather Forecast

Advertisements
Track Severe Weather on mobile